Terminal Aerodrome Forecast
Issued by NWS Los Angeles, CA

Home | Current Version | Previous Version | Text Only | Print | Product List | Glossary On
Versions: 1 2 3 4 5 6 7 8 9 10 11 12 13 14 15 16 17 18 19 20
000
FTUS46 KLOX 191129
TAFSMX
TAF
KSMX 191129Z 1912/2012 33008KT P6SM VCSH SCT060
     FM191600 32014KT P6SM VCSH SCT060
     FM191800 32018G28KT P6SM SKC
     FM192100 32022G32KT P6SM SKC
     FM200200 32014KT P6SM SKC
     FM200700 VRB03KT P6SM SKC=

USA.gov is the U.S. government's official web portal to all federal, state and local government web resources and services.